Amagansett, New York
Current Conditions -  °F | °C
As of 12:56 AM on Saturday 29 Nov 2014 (Local Time) from KGON Reporting Station
Clear Clear  
Wind Chill: 16°   Ceiling: Unl
Heat Index: 24°   Visibility: 8mi
Dew Point: 14°   Wind: 7mph
Humidity: 65%   Direction: 320°NW
Pressure: 30.25"   Gusts: NA
Location:  40.97°N, 72.14°W
Report Text: KGON 290556Z AUTO 32006KT 8SM CLR M04/M10 A3025 RMK AO2 SLP244 T10441100 11011 21050 50006
Loading
Personal Weather Stations






























Interactive Weather Map New forecast layout! Learn more

10-Day Weather Forecast

Advertisements
Track Severe Weather on mobile